Aviation Digital Data Service (ADDS)

Output produced by METARs form (0546 UTC 24 September 2020)
found at http://www.aviationweather.gov/metar/data/
 
METAR text: KFAT 240453Z 29004KT 10SM SCT200 26/08 A2999 RMK AO2 SLP152 T02610083
Conditions at: KFAT (FRESNO , CA, US) observed 0453 UTC 24 September 2020
Temperature: 26.1°C (79°F)
Dewpoint: 8.3°C (47°F) [RH = 32%]
Pressure (altimeter): 29.99 inches Hg (1015.7 mb)
[Sea-level pressure: 1015.2 mb]
Winds: from the WNW (290 degrees) at 5 MPH (4 knots; 2.1 m/s)
Visibility: 10 or more miles (16+ km)
Ceiling: at least 12,000 feet AGL
Clouds: scattered clouds at 20000 feet AGL
Weather: no significant weather observed at this time

Forecast for: KFAT (FRESNO , CA, US)
Text: KFAT 240520Z 2406/2506 VRB05KT P6SM SKC
Forecast period: 0600 UTC 24 September 2020 to 0600 UTC 25 September 2020
Forecast type: FROM: standard forecast or significant change
Winds: variable direction winds at 6 MPH (5 knots; 2.6 m/s)
Visibility: 6 or more miles (10+ km)
Clouds: clear skies
Weather: no significant weather forecast for this period